createdAt,value
2024-01-29T00:00:35.989Z,94347.00
2024-01-29T00:01:35.975Z,94347.00
2024-01-29T00:02:35.936Z,94343.00
2024-01-29T00:03:36.065Z,94341.00
2024-01-29T00:04:36.265Z,94344.00
2024-01-29T00:05:35.974Z,94342.00
2024-01-29T00:06:36.176Z,94344.00
2024-01-29T00:07:35.996Z,94340.00
2024-01-29T00:08:36.018Z,94340.00
2024-01-29T00:09:36.081Z,94339.00
2024-01-29T00:10:36.165Z,94340.00
2024-01-29T00:11:36.258Z,94344.00
2024-01-29T00:12:36.195Z,94346.00
2024-01-29T00:13:36.158Z,94345.00
2024-01-29T00:14:36.186Z,94343.00
2024-01-29T00:15:36.289Z,94342.00
2024-01-29T00:16:36.228Z,94345.00
2024-01-29T00:17:36.333Z,94345.00
2024-01-29T00:18:36.369Z,94343.00
2024-01-29T00:19:36.452Z,94347.00
2024-01-29T00:20:36.367Z,94350.00
2024-01-29T00:21:36.393Z,94341.00
2024-01-29T00:22:36.396Z,94341.00
2024-01-29T00:23:36.418Z,94337.00
2024-01-29T00:24:36.518Z,94338.00
2024-01-29T00:25:36.496Z,94339.00
2024-01-29T00:26:36.522Z,94346.00
2024-01-29T00:27:36.558Z,94340.00
2024-01-29T00:28:36.567Z,94340.00
2024-01-29T00:29:36.582Z,94342.00
2024-01-29T00:30:36.660Z,94343.00
2024-01-29T00:31:36.635Z,94337.00
2024-01-29T00:32:36.708Z,94338.00
2024-01-29T00:33:36.844Z,94332.00
2024-01-29T00:34:36.757Z,94334.00
2024-01-29T00:35:36.755Z,94338.00
2024-01-29T00:36:36.815Z,94336.00
2024-01-29T00:37:36.811Z,94326.00
2024-01-29T00:38:36.836Z,94326.00
2024-01-29T00:39:36.870Z,94333.00
2024-01-29T00:40:36.887Z,94334.00
2024-01-29T00:41:36.925Z,94333.00
2024-01-29T00:42:37.008Z,94332.00
2024-01-29T00:43:36.947Z,94331.00
2024-01-29T00:44:36.991Z,94340.00
2024-01-29T00:45:37.042Z,94334.00
2024-01-29T00:46:37.048Z,94335.00
2024-01-29T00:47:37.120Z,94337.00
2024-01-29T00:48:37.208Z,94334.00
2024-01-29T00:49:37.506Z,94338.00
2024-01-29T00:50:37.160Z,94331.00
2024-01-29T00:51:37.204Z,94332.00
2024-01-29T00:52:37.205Z,94338.00
2024-01-29T00:53:37.252Z,94338.00
2024-01-29T00:54:37.304Z,94333.00
2024-01-29T00:55:37.277Z,94333.00
2024-01-29T00:56:37.314Z,94334.00
2024-01-29T00:57:37.347Z,94333.00
2024-01-29T00:58:37.360Z,94333.00
2024-01-29T00:59:37.406Z,94339.00
2024-01-29T01:00:37.483Z,94346.00
2024-01-29T01:01:37.560Z,94347.00
2024-01-29T01:02:37.542Z,94344.00
2024-01-29T01:03:37.553Z,94342.00
2024-01-29T01:04:37.621Z,94345.00
2024-01-29T01:05:37.667Z,94340.00
2024-01-29T01:06:37.726Z,94347.00
2024-01-29T01:07:37.638Z,94341.00
2024-01-29T01:08:37.639Z,94348.00
2024-01-29T01:09:37.728Z,94348.00
2024-01-29T01:10:37.716Z,94347.00
2024-01-29T01:11:37.710Z,94349.00
2024-01-29T01:12:37.778Z,94348.00
2024-01-29T01:13:37.718Z,94353.00
2024-01-29T01:14:37.763Z,94350.00
2024-01-29T01:15:37.803Z,94353.00
2024-01-29T01:16:37.743Z,94358.00
2024-01-29T01:17:37.820Z,94358.00
2024-01-29T01:18:37.834Z,94357.00
2024-01-29T01:19:37.844Z,94353.00
2024-01-29T01:20:37.770Z,94351.00
2024-01-29T01:21:37.805Z,94349.00
2024-01-29T01:22:37.808Z,94345.00
2024-01-29T01:23:37.792Z,94345.00
2024-01-29T01:24:37.826Z,94346.00
2024-01-29T01:25:37.800Z,94348.00
2024-01-29T01:26:37.806Z,94346.00
2024-01-29T01:27:37.845Z,94346.00
2024-01-29T01:28:37.826Z,94346.00
2024-01-29T01:29:37.843Z,94343.00
2024-01-29T01:30:37.926Z,94345.00
2024-01-29T01:31:37.854Z,94349.00
2024-01-29T01:32:37.918Z,94352.00
2024-01-29T01:33:37.947Z,94352.00
2024-01-29T01:34:38.047Z,94348.00
2024-01-29T01:35:37.882Z,94349.00
2024-01-29T01:36:37.897Z,94342.00
2024-01-29T01:37:37.887Z,94340.00
2024-01-29T01:38:37.913Z,94341.00
2024-01-29T01:39:37.932Z,94346.00
2024-01-29T01:40:37.921Z,94347.00
2024-01-29T01:41:37.974Z,94354.00
2024-01-29T01:42:38.020Z,94347.00
2024-01-29T01:43:38.048Z,94348.00
2024-01-29T01:44:38.081Z,94346.00
2024-01-29T01:45:38.206Z,94346.00
2024-01-29T01:46:38.233Z,94348.00
2024-01-29T01:47:38.165Z,94349.00
2024-01-29T01:48:38.265Z,94350.00
2024-01-29T01:49:38.294Z,94345.00
2024-01-29T01:50:38.226Z,94347.00
2024-01-29T01:51:38.289Z,94346.00
2024-01-29T01:52:38.285Z,94345.00
2024-01-29T01:53:38.338Z,94344.00
2024-01-29T01:54:38.393Z,94343.00
2024-01-29T01:55:38.373Z,94340.00
2024-01-29T01:56:38.399Z,94337.00
2024-01-29T01:57:38.480Z,94332.00
2024-01-29T01:58:38.472Z,94326.00
2024-01-29T01:59:38.500Z,94326.00
2024-01-29T02:00:38.602Z,94325.00
2024-01-29T02:01:38.643Z,94325.00
2024-01-29T02:02:38.603Z,94330.00
2024-01-29T02:03:38.660Z,94327.00
2024-01-29T02:04:38.774Z,94327.00
2024-01-29T02:05:38.718Z,94327.00
2024-01-29T02:06:38.754Z,94324.00
2024-01-29T02:07:38.804Z,94322.00
2024-01-29T02:08:38.781Z,94325.00
2024-01-29T02:09:38.838Z,94324.00
2024-01-29T02:10:38.833Z,94322.00
2024-01-29T02:11:38.864Z,94322.00
2024-01-29T02:12:38.947Z,94324.00
2024-01-29T02:13:38.911Z,94322.00
2024-01-29T02:14:38.962Z,94324.00
2024-01-29T02:15:38.986Z,94320.00
2024-01-29T02:16:39.030Z,94318.00
2024-01-29T02:17:39.079Z,94316.00
2024-01-29T02:18:39.148Z,94316.00
2024-01-29T02:19:39.262Z,94317.00
2024-01-29T02:20:39.128Z,94310.00
2024-01-29T02:21:39.140Z,94312.00
2024-01-29T02:22:39.177Z,94310.00
2024-01-29T02:23:39.169Z,94310.00
2024-01-29T02:24:39.228Z,94313.00
2024-01-29T02:25:39.176Z,94317.00
2024-01-29T02:26:39.189Z,94320.00
2024-01-29T02:27:39.208Z,94327.00
2024-01-29T02:28:39.212Z,94323.00
2024-01-29T02:29:39.243Z,94327.00
2024-01-29T02:30:39.274Z,94324.00
2024-01-29T02:31:39.216Z,94319.00
2024-01-29T02:32:39.271Z,94320.00
2024-01-29T02:33:39.974Z,94322.00
2024-01-29T02:34:39.310Z,94325.00
2024-01-29T02:35:39.234Z,94320.00
2024-01-29T02:36:39.262Z,94320.00
2024-01-29T02:37:39.238Z,94318.00
2024-01-29T02:38:39.242Z,94319.00
2024-01-29T02:39:39.291Z,94320.00
2024-01-29T02:40:39.255Z,94320.00
2024-01-29T02:41:39.248Z,94317.00
2024-01-29T02:42:39.261Z,94317.00
2024-01-29T02:43:39.232Z,94311.00
2024-01-29T02:44:39.243Z,94317.00
2024-01-29T02:45:39.309Z,94321.00
2024-01-29T02:46:39.240Z,94316.00
2024-01-29T02:47:39.270Z,94314.00
2024-01-29T02:48:39.304Z,94314.00
2024-01-29T02:49:39.360Z,94313.00
2024-01-29T02:50:39.254Z,94314.00
2024-01-29T02:51:39.298Z,94315.00
2024-01-29T02:52:39.256Z,94312.00
2024-01-29T02:53:39.258Z,94314.00
2024-01-29T02:54:39.288Z,94312.00
2024-01-29T02:55:39.257Z,94306.00
2024-01-29T02:56:39.267Z,94305.00
2024-01-29T02:57:39.317Z,94303.00
2024-01-29T02:58:39.271Z,94303.00
2024-01-29T02:59:39.287Z,94302.00
2024-01-29T03:00:39.362Z,94299.00
2024-01-29T03:01:39.467Z,94299.00
2024-01-29T03:02:39.371Z,94311.00
2024-01-29T03:03:39.490Z,94309.00
2024-01-29T03:04:39.527Z,94311.00
2024-01-29T03:05:39.437Z,94304.00
2024-01-29T03:06:39.467Z,94297.00
2024-01-29T03:07:39.458Z,94300.00
2024-01-29T03:08:39.479Z,94299.00
2024-01-29T03:09:39.555Z,94302.00
2024-01-29T03:10:39.520Z,94302.00
2024-01-29T03:11:39.545Z,94302.00
2024-01-29T03:12:39.581Z,94308.00
2024-01-29T03:13:39.592Z,94298.00
2024-01-29T03:14:39.618Z,94301.00
2024-01-29T03:15:40.380Z,94305.00
2024-01-29T03:16:39.642Z,94308.00
2024-01-29T03:17:39.686Z,94306.00
2024-01-29T03:18:39.809Z,94306.00
2024-01-29T03:19:39.928Z,94297.00
2024-01-29T03:20:39.707Z,94312.00
2024-01-29T03:21:39.719Z,94307.00
2024-01-29T03:22:39.730Z,94300.00
2024-01-29T03:23:39.746Z,94305.00
2024-01-29T03:24:39.800Z,94302.00
2024-01-29T03:25:39.782Z,94297.00
2024-01-29T03:26:39.802Z,94295.00
2024-01-29T03:27:39.879Z,94288.00
2024-01-29T03:28:39.849Z,94293.00
2024-01-29T03:29:39.852Z,94295.00
2024-01-29T03:30:39.921Z,94297.00
2024-01-29T03:31:39.888Z,94295.00
2024-01-29T03:32:39.952Z,94299.00
2024-01-29T03:33:40.065Z,94312.00
2024-01-29T03:34:40.037Z,94304.00
2024-01-29T03:35:39.943Z,94298.00
2024-01-29T03:36:39.971Z,94302.00
2024-01-29T03:37:39.978Z,94302.00
2024-01-29T03:38:39.993Z,94304.00
2024-01-29T03:39:40.031Z,94296.00
2024-01-29T03:40:40.014Z,94298.00
2024-01-29T03:41:40.017Z,94299.00
2024-01-29T03:42:40.069Z,94290.00
2024-01-29T03:43:40.050Z,94293.00
2024-01-29T03:44:40.071Z,94284.00
2024-01-29T03:45:40.136Z,94284.00
2024-01-29T03:46:40.080Z,94294.00
2024-01-29T03:47:40.093Z,94300.00
2024-01-29T03:48:40.252Z,94298.00
2024-01-29T03:49:40.204Z,94298.00
2024-01-29T03:50:40.127Z,94293.00
2024-01-29T03:51:40.165Z,94290.00
2024-01-29T03:52:40.128Z,94299.00
2024-01-29T03:53:40.120Z,94299.00
2024-01-29T03:54:40.157Z,94302.00
2024-01-29T03:55:40.145Z,94296.00
2024-01-29T03:56:40.133Z,94299.00
2024-01-29T03:57:40.188Z,94296.00
2024-01-29T03:58:40.150Z,94303.00
2024-01-29T03:59:40.151Z,94300.00
2024-01-29T04:00:40.321Z,94298.00
2024-01-29T04:01:40.340Z,94313.00
2024-01-29T04:02:40.160Z,94295.00
2024-01-29T04:03:40.251Z,94297.00
2024-01-29T04:04:40.340Z,94297.00
2024-01-29T04:05:40.207Z,94297.00
2024-01-29T04:06:40.269Z,94295.00
2024-01-29T04:07:40.276Z,94301.00
2024-01-29T04:08:40.178Z,94299.00
2024-01-29T04:09:40.230Z,94298.00
2024-01-29T04:10:40.195Z,94298.00
2024-01-29T04:11:40.211Z,94296.00
2024-01-29T04:12:40.232Z,94297.00
2024-01-29T04:13:40.200Z,94298.00
2024-01-29T04:14:40.204Z,94293.00
2024-01-29T04:15:40.255Z,94295.00
2024-01-29T04:16:40.185Z,94300.00
2024-01-29T04:17:40.331Z,94298.00
2024-01-29T04:18:40.306Z,94297.00
2024-01-29T04:19:40.231Z,94296.00
2024-01-29T04:20:40.275Z,94297.00
2024-01-29T04:21:40.242Z,94300.00
2024-01-29T04:22:40.222Z,94300.00
2024-01-29T04:23:40.290Z,94297.00
2024-01-29T04:24:40.255Z,94298.00
2024-01-29T04:25:40.240Z,94294.00
2024-01-29T04:26:40.244Z,94298.00
2024-01-29T04:27:40.278Z,94300.00
2024-01-29T04:28:40.251Z,94303.00
2024-01-29T04:29:40.276Z,94285.00
2024-01-29T04:30:40.308Z,94294.00
2024-01-29T04:31:40.266Z,94292.00
2024-01-29T04:32:40.399Z,94291.00
2024-01-29T04:33:40.314Z,94282.00
2024-01-29T04:34:40.319Z,94282.00
2024-01-29T04:35:40.282Z,94285.00
2024-01-29T04:36:40.321Z,94286.00
2024-01-29T04:37:40.294Z,94288.00
2024-01-29T04:38:40.325Z,94289.00
2024-01-29T04:39:40.344Z,94287.00
2024-01-29T04:40:40.363Z,94293.00
2024-01-29T04:41:40.354Z,94289.00
2024-01-29T04:42:40.436Z,94292.00
2024-01-29T04:43:40.343Z,94291.00
2024-01-29T04:44:40.366Z,94292.00
2024-01-29T04:45:40.385Z,94296.00
2024-01-29T04:46:40.366Z,94301.00
2024-01-29T04:47:40.471Z,94297.00
2024-01-29T04:48:40.378Z,94297.00
2024-01-29T04:49:40.463Z,94300.00
2024-01-29T04:50:47.754Z,94301.00
2024-01-29T04:51:47.884Z,94300.00
2024-01-29T04:52:47.773Z,94296.00
2024-01-29T04:53:47.788Z,94297.00
2024-01-29T04:54:47.866Z,94301.00
2024-01-29T04:55:47.818Z,94296.00
2024-01-29T04:56:47.827Z,94300.00
2024-01-29T04:57:47.849Z,94300.00
2024-01-29T04:58:47.908Z,94299.00
2024-01-29T04:59:47.863Z,94300.00
2024-01-29T05:00:47.977Z,94302.00
2024-01-29T05:01:48.024Z,94302.00
2024-01-29T05:02:47.949Z,94301.00
2024-01-29T05:03:50.602Z,94307.00
2024-01-29T05:04:48.095Z,94311.00
2024-01-29T05:05:48.044Z,94308.00
2024-01-29T05:06:48.050Z,94304.00
2024-01-29T05:07:48.041Z,94306.00
2024-01-29T05:08:48.052Z,94305.00
2024-01-29T05:09:48.381Z,94309.00
2024-01-29T05:10:48.161Z,94309.00
2024-01-29T05:11:48.091Z,94317.00
2024-01-29T05:12:48.112Z,94312.00
2024-01-29T05:13:48.123Z,94315.00
2024-01-29T05:14:48.133Z,94307.00
2024-01-29T05:15:48.218Z,94313.00
2024-01-29T05:16:48.144Z,94313.00
2024-01-29T05:17:48.222Z,94307.00
2024-01-29T05:18:48.186Z,94307.00
2024-01-29T05:19:48.206Z,94308.00
2024-01-29T05:20:48.190Z,94306.00
2024-01-29T05:21:49.031Z,94304.00
2024-01-29T05:22:48.213Z,94307.00
2024-01-29T05:23:48.227Z,94304.00
2024-01-29T05:24:48.234Z,94305.00
2024-01-29T05:25:48.249Z,94301.00
2024-01-29T05:26:48.250Z,94304.00
2024-01-29T05:27:48.368Z,94301.00
2024-01-29T05:28:48.266Z,94302.00
2024-01-29T05:29:48.274Z,94304.00
2024-01-29T05:30:48.311Z,94302.00
2024-01-29T05:31:48.323Z,94305.00
2024-01-29T05:32:48.369Z,94305.00
2024-01-29T05:33:48.463Z,94306.00
2024-01-29T05:34:48.483Z,94302.00
2024-01-29T05:35:48.541Z,94304.00
2024-01-29T05:36:48.456Z,94303.00
2024-01-29T05:37:48.390Z,94294.00
2024-01-29T05:38:48.404Z,94299.00
2024-01-29T05:39:48.515Z,94299.00
2024-01-29T05:40:48.429Z,94305.00
2024-01-29T05:41:48.441Z,94308.00
2024-01-29T05:42:48.489Z,94299.00
2024-01-29T05:43:48.469Z,94297.00
2024-01-29T05:44:48.486Z,94291.00
2024-01-29T05:45:48.534Z,94292.00
2024-01-29T05:46:48.482Z,94307.00
2024-01-29T05:47:48.584Z,94298.00
2024-01-29T05:48:48.733Z,94304.00
2024-01-29T05:49:48.659Z,94307.00
2024-01-29T05:50:48.546Z,94294.00
2024-01-29T05:51:48.629Z,94299.00
2024-01-29T05:52:49.369Z,94297.00
2024-01-29T05:53:48.680Z,94300.00
2024-01-29T05:54:48.728Z,94311.00
2024-01-29T05:55:48.627Z,94313.00
2024-01-29T05:56:51.026Z,94308.00
2024-01-29T05:57:48.645Z,94310.00
2024-01-29T05:58:48.656Z,94309.00
2024-01-29T05:59:48.666Z,94314.00
2024-01-29T06:00:48.815Z,94313.00
2024-01-29T06:01:49.026Z,94315.00
2024-01-29T06:02:48.813Z,94313.00
2024-01-29T06:03:48.740Z,94319.00
2024-01-29T06:04:49.419Z,94319.00
2024-01-29T06:05:48.843Z,94315.00
2024-01-29T06:06:48.999Z,94317.00
2024-01-29T06:07:48.821Z,94318.00
2024-01-29T06:08:48.792Z,94316.00
2024-01-29T06:09:48.849Z,94315.00
2024-01-29T06:10:50.712Z,94316.00
2024-01-29T06:11:48.849Z,94320.00
2024-01-29T06:12:48.908Z,94321.00
2024-01-29T06:13:48.942Z,94322.00
2024-01-29T06:14:48.951Z,94318.00
2024-01-29T06:15:48.982Z,94316.00
2024-01-29T06:16:48.924Z,94313.00
2024-01-29T06:17:48.991Z,94323.00
2024-01-29T06:18:49.099Z,94318.00
2024-01-29T06:20:03.215Z,94316.00
2024-01-29T06:20:50.156Z,94313.00
2024-01-29T06:21:49.108Z,94326.00
2024-01-29T06:22:48.983Z,94308.00
2024-01-29T06:23:48.998Z,94322.00
2024-01-29T06:24:49.045Z,94324.00
2024-01-29T06:25:49.055Z,94319.00
2024-01-29T06:26:49.718Z,94314.00
2024-01-29T06:27:49.164Z,94321.00
2024-01-29T06:28:49.078Z,94326.00
2024-01-29T06:29:49.104Z,94325.00
2024-01-29T06:30:49.163Z,94329.00
2024-01-29T06:31:49.206Z,94320.00
2024-01-29T06:32:49.327Z,94322.00
2024-01-29T06:33:49.383Z,94321.00
2024-01-29T06:34:49.645Z,94332.00
2024-01-29T06:35:49.479Z,94317.00
2024-01-29T06:36:49.562Z,94324.00
2024-01-29T06:37:50.301Z,94331.00
2024-01-29T06:38:49.630Z,94323.00
2024-01-29T06:39:49.742Z,94325.00
2024-01-29T06:40:49.720Z,94330.00
2024-01-29T06:41:49.770Z,94326.00
2024-01-29T06:42:49.861Z,94326.00
2024-01-29T06:43:49.818Z,94329.00
2024-01-29T06:44:49.857Z,94334.00
2024-01-29T06:45:50.424Z,94324.00
2024-01-29T06:46:49.943Z,94324.00
2024-01-29T06:47:49.962Z,94318.00
2024-01-29T06:48:50.050Z,94319.00
2024-01-29T06:49:50.920Z,94327.00
2024-01-29T06:50:50.882Z,94331.00
2024-01-29T06:51:51.911Z,94332.00
2024-01-29T06:52:50.381Z,94330.00
2024-01-29T06:53:50.101Z,94328.00
2024-01-29T06:54:50.118Z,94333.00
2024-01-29T06:55:50.129Z,94333.00
2024-01-29T06:56:50.134Z,94328.00
2024-01-29T06:57:50.267Z,94333.00
2024-01-29T06:58:50.112Z,94344.00
2024-01-29T06:59:50.851Z,94345.00
2024-01-29T07:00:50.259Z,94344.00
2024-01-29T07:01:50.282Z,94346.00
2024-01-29T07:02:50.176Z,94351.00
2024-01-29T07:03:50.404Z,94355.00
2024-01-29T07:04:50.955Z,94353.00
2024-01-29T07:05:50.340Z,94349.00
2024-01-29T07:06:50.354Z,94348.00
2024-01-29T07:07:50.389Z,94346.00
2024-01-29T07:08:50.310Z,94349.00
2024-01-29T07:09:50.313Z,94353.00
2024-01-29T07:10:50.321Z,94350.00
2024-01-29T07:11:51.013Z,94352.00
2024-01-29T07:12:50.443Z,94357.00
2024-01-29T07:13:50.406Z,94356.00
2024-01-29T07:14:50.337Z,94362.00
2024-01-29T07:15:50.468Z,94360.00
2024-01-29T07:16:50.360Z,94361.00
2024-01-29T07:17:50.426Z,94367.00
2024-01-29T07:18:50.476Z,94368.00
2024-01-29T07:19:50.438Z,94369.00
2024-01-29T07:20:50.490Z,94370.00
2024-01-29T07:21:50.507Z,94369.00
2024-01-29T07:22:50.439Z,94362.00
2024-01-29T07:23:50.433Z,94363.00
2024-01-29T07:24:51.448Z,94368.00
2024-01-29T07:25:50.520Z,94367.00
2024-01-29T07:26:50.452Z,94364.00
2024-01-29T07:27:50.506Z,94362.00
2024-01-29T07:28:50.510Z,94361.00
2024-01-29T07:29:50.558Z,94367.00
2024-01-29T07:30:50.634Z,94365.00
2024-01-29T07:31:50.777Z,94365.00
2024-01-29T07:32:50.775Z,94372.00
2024-01-29T07:33:50.798Z,94361.00
2024-01-29T07:34:53.112Z,94371.00
2024-01-29T07:35:51.009Z,94358.00
2024-01-29T07:36:51.137Z,94355.00
2024-01-29T07:37:51.058Z,94364.00
2024-01-29T07:38:51.901Z,94367.00
2024-01-29T07:39:51.175Z,94357.00
2024-01-29T07:40:51.192Z,94364.00
2024-01-29T07:41:51.218Z,94370.00
2024-01-29T07:42:51.548Z,94372.00
2024-01-29T07:43:51.298Z,94369.00
2024-01-29T07:44:51.415Z,94366.00
2024-01-29T07:45:51.431Z,94366.00
2024-01-29T07:46:52.399Z,94367.00
2024-01-29T07:47:51.542Z,94368.00
2024-01-29T07:48:51.595Z,94365.00
2024-01-29T07:49:51.743Z,94369.00
2024-01-29T07:50:51.585Z,94358.00
2024-01-29T07:51:51.684Z,94363.00
2024-01-29T07:52:51.654Z,94360.00
2024-01-29T07:53:52.413Z,94362.00
2024-01-29T07:54:51.746Z,94361.00
2024-01-29T07:55:51.772Z,94374.00
2024-01-29T07:56:51.839Z,94367.00
2024-01-29T07:57:51.977Z,94365.00
2024-01-29T07:58:51.923Z,94373.00
2024-01-29T07:59:51.949Z,94370.00
2024-01-29T08:00:52.262Z,94375.00
2024-01-29T08:01:52.126Z,94367.00
2024-01-29T08:02:52.184Z,94374.00
2024-01-29T08:03:52.193Z,94374.00
2024-01-29T08:04:52.369Z,94374.00
2024-01-29T08:05:52.279Z,94368.00
2024-01-29T08:06:52.343Z,94368.00
2024-01-29T08:07:52.393Z,94372.00
2024-01-29T08:08:52.444Z,94367.00
2024-01-29T08:09:52.549Z,94366.00
2024-01-29T08:10:52.564Z,94378.00
2024-01-29T08:11:52.606Z,94380.00
2024-01-29T08:12:52.716Z,94369.00
2024-01-29T08:13:52.816Z,94377.00
2024-01-29T08:14:52.748Z,94374.00
2024-01-29T08:15:52.835Z,94378.00
2024-01-29T08:16:52.945Z,94377.00
2024-01-29T08:17:52.980Z,94374.00
2024-01-29T08:18:53.096Z,94370.00
2024-01-29T08:19:53.060Z,94366.00
2024-01-29T08:20:53.115Z,94365.00
2024-01-29T08:21:53.038Z,94369.00
2024-01-29T08:22:53.155Z,94373.00
2024-01-29T08:23:53.094Z,94369.00
2024-01-29T08:24:53.123Z,94367.00
2024-01-29T08:25:53.137Z,94361.00
2024-01-29T08:26:53.202Z,94363.00
2024-01-29T08:27:53.954Z,94364.00
2024-01-29T08:28:53.265Z,94359.00
2024-01-29T08:29:53.341Z,94359.00
2024-01-29T08:30:53.471Z,94361.00
2024-01-29T08:31:53.414Z,94364.00
2024-01-29T08:32:53.507Z,94360.00
2024-01-29T08:33:53.656Z,94359.00
2024-01-29T08:34:53.754Z,94372.00
2024-01-29T08:35:53.923Z,94361.00
2024-01-29T08:36:53.744Z,94362.00
2024-01-29T08:37:53.776Z,94365.00
2024-01-29T08:38:53.862Z,94368.00
2024-01-29T08:39:53.918Z,94367.00
2024-01-29T08:40:53.950Z,94372.00
2024-01-29T08:41:54.060Z,94369.00
2024-01-29T08:42:54.135Z,94375.00
2024-01-29T08:43:54.168Z,94374.00
2024-01-29T08:44:54.325Z,94376.00
2024-01-29T08:45:54.337Z,94366.00
2024-01-29T08:46:54.375Z,94372.00
2024-01-29T08:47:54.495Z,94369.00
2024-01-29T08:48:54.571Z,94365.00
2024-01-29T08:49:54.597Z,94368.00
2024-01-29T08:50:54.663Z,94363.00
2024-01-29T08:51:54.794Z,94365.00
2024-01-29T08:52:54.819Z,94360.00
2024-01-29T08:53:54.849Z,94364.00
2024-01-29T08:54:54.904Z,94364.00
2024-01-29T08:55:55.081Z,94372.00
2024-01-29T08:56:55.002Z,94366.00
2024-01-29T08:57:55.022Z,94359.00
2024-01-29T08:58:55.022Z,94369.00
2024-01-29T08:59:55.028Z,94363.00
2024-01-29T09:00:55.215Z,94359.00
2024-01-29T09:01:55.180Z,94363.00
2024-01-29T09:02:55.132Z,94361.00
2024-01-29T09:03:55.204Z,94360.00
2024-01-29T09:04:55.326Z,94363.00
2024-01-29T09:05:55.230Z,94361.00
2024-01-29T09:06:55.218Z,94360.00
2024-01-29T09:07:56.245Z,94359.00
2024-01-29T09:08:55.233Z,94355.00
2024-01-29T09:09:55.254Z,94355.00
2024-01-29T09:10:55.232Z,94354.00
2024-01-29T09:11:55.238Z,94353.00
2024-01-29T09:12:55.274Z,94352.00
2024-01-29T09:13:55.257Z,94350.00
2024-01-29T09:14:55.258Z,94348.00
2024-01-29T09:15:55.257Z,94347.00
2024-01-29T09:16:55.894Z,94347.00
2024-01-29T09:17:55.326Z,94360.00
2024-01-29T09:18:55.969Z,94349.00
2024-01-29T09:19:55.966Z,94352.00
2024-01-29T09:20:55.282Z,94356.00
2024-01-29T09:21:55.344Z,94349.00
2024-01-29T09:22:55.327Z,94348.00
2024-01-29T09:23:55.286Z,94349.00
2024-01-29T09:24:55.329Z,94343.00
2024-01-29T09:25:55.872Z,94347.00
2024-01-29T09:26:55.293Z,94346.00
2024-01-29T09:27:55.338Z,94342.00
2024-01-29T09:28:55.288Z,94346.00
2024-01-29T09:29:55.287Z,94341.00
2024-01-29T09:30:55.325Z,94341.00
2024-01-29T09:31:55.277Z,94342.00
2024-01-29T09:33:03.335Z,94342.00
2024-01-29T09:33:56.545Z,94344.00
2024-01-29T09:34:55.463Z,94340.00
2024-01-29T09:35:55.283Z,94333.00
2024-01-29T09:36:55.335Z,94344.00
2024-01-29T09:37:55.345Z,94342.00
2024-01-29T09:38:55.264Z,94336.00
2024-01-29T09:39:55.298Z,94345.00
2024-01-29T09:40:55.273Z,94339.00
2024-01-29T09:41:55.285Z,94345.00
2024-01-29T09:42:55.910Z,94333.00
2024-01-29T09:43:55.274Z,94336.00
2024-01-29T09:44:55.262Z,94329.00
2024-01-29T09:45:55.271Z,94328.00
2024-01-29T09:46:55.245Z,94329.00
2024-01-29T09:47:56.080Z,94328.00
2024-01-29T09:48:55.357Z,94325.00
2024-01-29T09:49:55.979Z,94327.00
2024-01-29T09:50:55.261Z,94330.00
2024-01-29T09:51:55.265Z,94331.00
2024-01-29T09:52:58.852Z,94328.00
2024-01-29T09:53:55.241Z,94326.00
2024-01-29T09:54:55.257Z,94328.00
2024-01-29T09:55:55.206Z,94324.00
2024-01-29T09:56:55.219Z,94325.00
2024-01-29T09:57:55.305Z,94329.00
2024-01-29T09:58:55.267Z,94329.00
2024-01-29T09:59:55.948Z,94325.00
2024-01-29T10:00:55.277Z,94331.00
2024-01-29T10:01:55.238Z,94329.00
2024-01-29T10:02:55.368Z,94323.00
2024-01-29T10:03:55.264Z,94325.00
2024-01-29T10:04:55.218Z,94320.00
2024-01-29T10:05:55.161Z,94313.00
2024-01-29T10:06:55.237Z,94316.00
2024-01-29T10:07:55.318Z,94315.00
2024-01-29T10:08:55.133Z,94315.00
2024-01-29T10:09:55.215Z,94312.00
2024-01-29T10:10:55.126Z,94315.00
2024-01-29T10:11:55.145Z,94311.00
2024-01-29T10:12:55.144Z,94306.00
2024-01-29T10:13:55.954Z,94303.00
2024-01-29T10:14:55.119Z,94298.00
2024-01-29T10:15:55.212Z,94301.00
2024-01-29T10:16:55.089Z,94297.00
2024-01-29T10:17:55.129Z,94295.00
2024-01-29T10:18:55.178Z,94296.00
2024-01-29T10:19:55.260Z,94291.00
2024-01-29T10:20:55.172Z,94293.00
2024-01-29T10:21:55.230Z,94290.00
2024-01-29T10:22:55.195Z,94289.00
2024-01-29T10:23:55.221Z,94284.00
2024-01-29T10:24:55.273Z,94283.00
2024-01-29T10:25:55.973Z,94283.00
2024-01-29T10:26:55.292Z,94280.00
2024-01-29T10:27:55.326Z,94282.00
2024-01-29T10:28:55.345Z,94283.00
2024-01-29T10:29:55.353Z,94276.00
2024-01-29T10:30:55.630Z,94277.00
2024-01-29T10:31:55.495Z,94270.00
2024-01-29T10:32:55.683Z,94268.00
2024-01-29T10:33:55.749Z,94273.00
2024-01-29T10:34:55.840Z,94275.00
2024-01-29T10:35:55.820Z,94274.00
2024-01-29T10:36:55.816Z,94275.00
2024-01-29T10:37:55.835Z,94280.00
2024-01-29T10:38:55.868Z,94274.00
2024-01-29T10:39:59.666Z,94271.00
2024-01-29T10:40:55.907Z,94271.00
2024-01-29T10:41:56.542Z,94271.00
2024-01-29T10:42:55.913Z,94273.00
2024-01-29T10:43:55.875Z,94267.00
2024-01-29T10:44:55.891Z,94268.00
2024-01-29T10:45:57.540Z,94266.00
2024-01-29T10:46:55.850Z,94260.00
2024-01-29T10:47:57.650Z,94252.00
2024-01-29T10:48:56.110Z,94255.00
2024-01-29T10:49:57.011Z,94251.00
2024-01-29T10:50:56.077Z,94242.00
2024-01-29T10:51:56.526Z,94250.00
2024-01-29T10:52:56.136Z,94247.00
2024-01-29T10:53:56.142Z,94243.00
2024-01-29T10:54:56.220Z,94243.00
2024-01-29T10:55:56.216Z,94241.00
2024-01-29T10:56:56.279Z,94244.00
2024-01-29T10:57:56.285Z,94241.00
2024-01-29T10:58:56.306Z,94240.00
2024-01-29T10:59:56.398Z,94237.00
2024-01-29T11:00:56.452Z,94236.00
2024-01-29T11:02:03.852Z,94237.00
2024-01-29T11:02:57.453Z,94238.00
2024-01-29T11:03:56.434Z,94238.00
2024-01-29T11:04:56.419Z,94232.00
2024-01-29T11:05:56.402Z,94232.00
2024-01-29T11:06:57.380Z,94229.00
2024-01-29T11:07:56.284Z,94226.00
2024-01-29T11:08:56.284Z,94226.00
2024-01-29T11:09:56.317Z,94228.00
2024-01-29T11:10:56.312Z,94239.00
2024-01-29T11:11:56.234Z,94238.00
2024-01-29T11:12:56.321Z,94217.00
2024-01-29T11:13:56.242Z,94215.00
2024-01-29T11:14:56.226Z,94215.00
2024-01-29T11:15:56.282Z,94217.00
2024-01-29T11:16:56.206Z,94208.00
2024-01-29T11:17:56.220Z,94214.00
2024-01-29T11:18:56.264Z,94207.00
2024-01-29T11:19:56.243Z,94208.00
2024-01-29T11:20:56.986Z,94204.00
2024-01-29T11:21:56.267Z,94198.00
2024-01-29T11:22:56.302Z,94205.00
2024-01-29T11:23:56.323Z,94208.00
2024-01-29T11:24:56.309Z,94205.00
2024-01-29T11:25:56.301Z,94197.00
2024-01-29T11:26:56.987Z,94197.00
2024-01-29T11:27:56.276Z,94202.00
2024-01-29T11:28:56.355Z,94193.00
2024-01-29T11:29:56.430Z,94190.00
2024-01-29T11:30:56.584Z,94192.00
2024-01-29T11:31:57.000Z,94193.00
2024-01-29T11:32:56.623Z,94191.00
2024-01-29T11:33:56.958Z,94189.00
2024-01-29T11:34:56.531Z,94194.00
2024-01-29T11:35:56.614Z,94190.00
2024-01-29T11:36:57.659Z,94189.00
2024-01-29T11:37:56.621Z,94183.00
2024-01-29T11:38:56.728Z,94182.00
2024-01-29T11:39:56.721Z,94176.00
2024-01-29T11:40:56.741Z,94176.00
2024-01-29T11:41:56.751Z,94175.00
2024-01-29T11:42:56.867Z,94171.00
2024-01-29T11:43:56.812Z,94170.00
2024-01-29T11:44:56.914Z,94161.00